Terminal Aerodrome Forecast
Issued by NWS Binghamton, NY

Home | Current Version | Previous Version | Text Only | Print | Product List | Glossary On
Versions: 1 2 3 4 5 6 7 8 9 10 11 12 13 14 15 16 17 18 19 20 21 22 23 24 25 26 27 28 29 30 31 32 33 34 35 36 37 38 39 40
000
FTUS41 KBGM 101929 AAA
TAFAVP
TAF AMD
KAVP 101929Z 1019/1118 24010KT 6SM -SHRA OVC035
      TEMPO 1021/1023 OVC025
     FM102300 26010KT 4SM -SHRA OVC015
     FM110400 31005KT 2SM -SN OVC009
     FM110800 27005KT P6SM BKN025
     FM111500 24008KT P6SM BKN035=

USA.gov is the U.S. government's official web portal to all federal, state and local government web resources and services.